Terminal Aerodrome Forecast
Issued by NWS

Home | Current Version | Previous Version | Text Only | Print | Product List | Glossary On
Versions: 1 2 3 4 5 6 7 8 9 10 11 12 13
000
FTUS44 KEPZ 230000 RRA
TAFLRU
TAF
KLRU 230017Z 2300/2324 16008KT P6SM FEW025 FEW100 BKN250
     FM230300 19007KT P6SM VCTS FEW050CB BKN120 BKN250
      TEMPO 2303/2305 -TSRA SCT040CB
     FM230600 23008KT P6SM FEW050 BKN120 BKN250
     FM231700 28007KT P6SM FEW060 SCT250=

USA.gov is the U.S. government's official web portal to all federal, state and local government web resources and services.